sensor_id;sensor_type;location;lat;lon;timestamp;pressure;altitude;pressure_sealevel;temperature;humidity
48796;BME280;34607;48.520;-1.330;2023-03-23T07:40:30;99095.50;;;11.74;100.00
48796;BME280;34607;48.520;-1.330;2023-03-23T07:43:04;99106.69;;;11.78;100.00
48796;BME280;34607;48.520;-1.330;2023-03-23T07:45:49;99109.31;;;11.76;100.00
48796;BME280;34607;48.520;-1.330;2023-03-23T07:48:18;99088.56;;;11.76;100.00
48796;BME280;34607;48.520;-1.330;2023-03-23T07:50:46;99107.50;;;11.88;100.00
48796;BME280;34607;48.520;-1.330;2023-03-23T07:53:15;99112.63;;;11.94;100.00
48796;BME280;34607;48.520;-1.330;2023-03-23T07:55:49;99110.03;;;11.94;100.00
48796;BME280;34607;48.520;-1.330;2023-03-23T07:58:39;99110.00;;;12.00;100.00
48796;BME280;34607;48.520;-1.330;2023-03-23T08:01:06;99091.72;;;12.09;100.00
48796;BME280;34607;48.520;-1.330;2023-03-23T08:03:36;99100.34;;;12.13;100.00
48796;BME280;34607;48.520;-1.330;2023-03-23T08:06:31;99099.44;;;12.20;100.00
48796;BME280;34607;48.520;-1.330;2023-03-23T08:09:31;99111.47;;;12.24;100.00
48796;BME280;34607;48.520;-1.330;2023-03-23T08:12:24;99082.13;;;12.19;100.00
48796;BME280;34607;48.520;-1.330;2023-03-23T08:15:13;99119.19;;;12.32;100.00
48796;BME280;34607;48.520;-1.330;2023-03-23T08:18:00;99113.16;;;12.27;100.00
48796;BME280;34607;48.520;-1.330;2023-03-23T08:20:46;99098.50;;;12.26;100.00
48796;BME280;34607;48.520;-1.330;2023-03-23T08:23:27;99121.69;;;12.41;100.00
48796;BME280;34607;48.520;-1.330;2023-03-23T08:26:29;99113.00;;;12.42;100.00
48796;BME280;34607;48.520;-1.330;2023-03-23T08:29:19;99115.69;;;12.34;100.00
48796;BME280;34607;48.520;-1.330;2023-03-23T08:31:56;99131.28;;;12.34;100.00
48796;BME280;34607;48.520;-1.330;2023-03-23T08:34:35;99119.09;;;12.41;100.00
48796;BME280;34607;48.520;-1.330;2023-03-23T08:37:25;99118.97;;;12.50;100.00
48796;BME280;34607;48.520;-1.330;2023-03-23T08:39:53;99113.72;;;12.57;100.00
48796;BME280;34607;48.520;-1.330;2023-03-23T08:42:46;99088.72;;;12.48;100.00
48796;BME280;34607;48.520;-1.330;2023-03-23T08:45:34;99128.22;;;12.73;100.00
48796;BME280;34607;48.520;-1.330;2023-03-23T08:48:14;99109.19;;;12.72;100.00
48796;BME280;34607;48.520;-1.330;2023-03-23T08:51:19;99123.81;;;12.81;100.00
48796;BME280;34607;48.520;-1.330;2023-03-23T08:54:10;99128.97;;;12.84;100.00
48796;BME280;34607;48.520;-1.330;2023-03-23T08:56:54;99122.97;;;12.81;100.00
48796;BME280;34607;48.520;-1.330;2023-03-23T08:59:34;99122.16;;;12.76;100.00
48796;BME280;34607;48.520;-1.330;2023-03-23T09:02:23;99117.91;;;12.70;100.00
48796;BME280;34607;48.520;-1.330;2023-03-23T09:04:56;99118.81;;;12.66;100.00
48796;BME280;34607;48.520;-1.330;2023-03-23T09:07:36;99105.84;;;12.63;100.00
48796;BME280;34607;48.520;-1.330;2023-03-23T09:10:03;99111.84;;;12.68;100.00
48796;BME280;34607;48.520;-1.330;2023-03-23T09:12:30;99098.03;;;12.66;100.00
48796;BME280;34607;48.520;-1.330;2023-03-23T09:14:57;99101.44;;;12.69;100.00
48796;BME280;34607;48.520;-1.330;2023-03-23T09:17:26;99106.53;;;12.79;100.00
48796;BME280;34607;48.520;-1.330;2023-03-23T09:19:53;99113.41;;;12.81;100.00
48796;BME280;34607;48.520;-1.330;2023-03-23T09:22:20;99117.69;;;12.87;100.00
48796;BME280;34607;48.520;-1.330;2023-03-23T09:24:49;99116.81;;;12.86;100.00
48796;BME280;34607;48.520;-1.330;2023-03-23T09:27:17;99098.75;;;12.79;100.00
48796;BME280;34607;48.520;-1.330;2023-03-23T09:29:44;99107.34;;;12.84;100.00
48796;BME280;34607;48.520;-1.330;2023-03-23T09:32:14;99109.03;;;12.86;100.00
48796;BME280;34607;48.520;-1.330;2023-03-23T09:34:43;99112.31;;;13.01;100.00
48796;BME280;34607;48.520;-1.330;2023-03-23T09:37:10;99119.16;;;13.06;100.00
48796;BME280;34607;48.520;-1.330;2023-03-23T09:39:40;99101.22;;;12.86;100.00
48796;BME280;34607;48.520;-1.330;2023-03-23T09:42:16;99100.41;;;12.83;100.00
48796;BME280;34607;48.520;-1.330;2023-03-23T09:44:59;99108.22;;;12.81;100.00
48796;BME280;34607;48.520;-1.330;2023-03-23T09:47:37;99113.41;;;12.83;100.00
48796;BME280;34607;48.520;-1.330;2023-03-23T09:50:12;99094.41;;;12.78;100.00
48796;BME280;34607;48.520;-1.330;2023-03-23T09:52:44;99108.78;;;13.05;100.00
48796;BME280;34607;48.520;-1.330;2023-03-23T09:55:15;99089.34;;;13.30;100.00
48796;BME280;34607;48.520;-1.330;2023-03-23T09:57:57;99098.25;;;13.73;100.00
48796;BME280;34607;48.520;-1.330;2023-03-23T10:00:29;99089.22;;;13.93;100.00
48796;BME280;34607;48.520;-1.330;2023-03-23T10:03:02;99082.38;;;13.87;100.00
48796;BME280;34607;48.520;-1.330;2023-03-23T10:05:35;99099.13;;;13.71;99.63
48796;BME280;34607;48.520;-1.330;2023-03-23T10:08:09;99092.13;;;13.76;99.56
48796;BME280;34607;48.520;-1.330;2023-03-23T10:10:46;99094.53;;;13.88;98.21
48796;BME280;34607;48.520;-1.330;2023-03-23T10:13:22;99094.34;;;13.97;98.96
48796;BME280;34607;48.520;-1.330;2023-03-23T10:15:54;99097.84;;;13.96;98.61
48796;BME280;34607;48.520;-1.330;2023-03-23T10:18:27;99079.59;;;13.98;99.11
48796;BME280;34607;48.520;-1.330;2023-03-23T10:20:58;99095.03;;;14.09;98.36
48796;BME280;34607;48.520;-1.330;2023-03-23T10:26:41;99109.16;;;13.95;97.82
48796;BME280;34607;48.520;-1.330;2023-03-23T10:29:16;99114.31;;;13.97;98.25
48796;BME280;34607;48.520;-1.330;2023-03-23T10:31:47;99120.50;;;13.90;97.47
48796;BME280;34607;48.520;-1.330;2023-03-23T10:34:22;99120.63;;;13.82;97.79
48796;BME280;34607;48.520;-1.330;2023-03-23T10:37:01;99115.28;;;13.91;98.14
48796;BME280;34607;48.520;-1.330;2023-03-23T10:39:32;99121.22;;;13.99;97.92
48796;BME280;34607;48.520;-1.330;2023-03-23T10:42:04;99132.53;;;13.97;97.65
48796;BME280;34607;48.520;-1.330;2023-03-23T10:44:33;99118.72;;;13.93;97.30
48796;BME280;34607;48.520;-1.330;2023-03-23T10:47:02;99131.63;;;13.98;97.71
48796;BME280;34607;48.520;-1.330;2023-03-23T10:49:34;99129.94;;;13.97;97.00
48796;BME280;34607;48.520;-1.330;2023-03-23T10:52:09;99130.22;;;13.80;95.88
48796;BME280;34607;48.520;-1.330;2023-03-23T10:54:49;99132.78;;;13.83;96.13
48796;BME280;34607;48.520;-1.330;2023-03-23T10:57:24;99136.94;;;13.93;95.92
48796;BME280;34607;48.520;-1.330;2023-03-23T10:59:58;99133.59;;;13.85;95.48
48796;BME280;34607;48.520;-1.330;2023-03-23T11:02:27;99122.06;;;14.00;96.22
48796;BME280;34607;48.520;-1.330;2023-03-23T11:04:58;99120.13;;;14.11;96.37
48796;BME280;34607;48.520;-1.330;2023-03-23T11:07:30;99119.50;;;13.98;96.36
48796;BME280;34607;48.520;-1.330;2023-03-23T11:10:06;99081.78;;;13.73;96.87
48796;BME280;34607;48.520;-1.330;2023-03-23T11:12:34;99089.31;;;13.88;96.93
48796;BME280;34607;48.520;-1.330;2023-03-23T11:15:27;99112.78;;;13.85;95.26
48796;BME280;34607;48.520;-1.330;2023-03-23T11:17:56;99117.22;;;13.78;96.15
48796;BME280;34607;48.520;-1.330;2023-03-23T11:20:25;99117.34;;;13.71;97.10
48796;BME280;34607;48.520;-1.330;2023-03-23T11:22:55;99116.56;;;13.65;97.57
48796;BME280;34607;48.520;-1.330;2023-03-23T11:25:22;99115.72;;;13.65;98.38
48796;BME280;34607;48.520;-1.330;2023-03-23T11:27:50;99118.44;;;13.57;98.77
48796;BME280;34607;48.520;-1.330;2023-03-23T11:30:24;99120.91;;;13.65;98.78
48796;BME280;34607;48.520;-1.330;2023-03-23T11:32:53;99111.09;;;13.82;98.36
48796;BME280;34607;48.520;-1.330;2023-03-23T11:35:24;99071.03;;;13.91;97.00
48796;BME280;34607;48.520;-1.330;2023-03-23T11:37:55;99075.06;;;14.09;96.53
48796;BME280;34607;48.520;-1.330;2023-03-23T11:40:25;99077.91;;;14.42;95.91
48796;BME280;34607;48.520;-1.330;2023-03-23T11:42:58;99069.47;;;14.73;93.73
48796;BME280;34607;48.520;-1.330;2023-03-23T11:45:33;99059.38;;;14.98;92.58
48796;BME280;34607;48.520;-1.330;2023-03-23T11:48:12;99074.13;;;14.99;91.84
48796;BME280;34607;48.520;-1.330;2023-03-23T11:50:48;99057.06;;;14.86;93.13
48796;BME280;34607;48.520;-1.330;2023-03-23T11:53:24;99068.25;;;14.91;93.40
48796;BME280;34607;48.520;-1.330;2023-03-23T11:56:00;99063.41;;;14.74;93.56
48796;BME280;34607;48.520;-1.330;2023-03-23T11:58:29;99076.88;;;14.49;94.68
48796;BME280;34607;48.520;-1.330;2023-03-23T12:01:02;99075.88;;;14.11;97.19
48796;BME280;34607;48.520;-1.330;2023-03-23T12:03:47;99073.34;;;14.07;99.06
48796;BME280;34607;48.520;-1.330;2023-03-23T12:06:22;99072.31;;;14.15;99.72
48796;BME280;34607;48.520;-1.330;2023-03-23T12:09:06;99073.44;;;14.03;100.00
48796;BME280;34607;48.520;-1.330;2023-03-23T12:11:40;99069.22;;;13.95;100.00
48796;BME280;34607;48.520;-1.330;2023-03-23T12:14:18;99059.16;;;13.78;100.00
48796;BME280;34607;48.520;-1.330;2023-03-23T12:16:57;99067.66;;;13.86;100.00
48796;BME280;34607;48.520;-1.330;2023-03-23T12:19:34;99072.72;;;13.95;100.00
48796;BME280;34607;48.520;-1.330;2023-03-23T12:22:11;99055.03;;;14.13;100.00
48796;BME280;34607;48.520;-1.330;2023-03-23T12:24:50;99031.53;;;14.17;100.00
48796;BME280;34607;48.520;-1.330;2023-03-23T12:27:23;99053.00;;;14.27;100.00
48796;BME280;34607;48.520;-1.330;2023-03-23T12:30:04;99047.31;;;14.07;100.00
48796;BME280;34607;48.520;-1.330;2023-03-23T12:33:11;99054.09;;;14.15;100.00
48796;BME280;34607;48.520;-1.330;2023-03-23T12:35:59;99035.81;;;14.18;100.00
48796;BME280;34607;48.520;-1.330;2023-03-23T12:38:42;99028.66;;;14.30;100.00
48796;BME280;34607;48.520;-1.330;2023-03-23T12:41:20;99027.34;;;14.51;100.00
48796;BME280;34607;48.520;-1.330;2023-03-23T12:43:51;99035.56;;;14.74;100.00
48796;BME280;34607;48.520;-1.330;2023-03-23T12:46:46;99030.03;;;14.90;98.59
48796;BME280;34607;48.520;-1.330;2023-03-23T12:49:19;99036.25;;;15.22;97.92
48796;BME280;34607;48.520;-1.330;2023-03-23T12:51:53;99012.91;;;15.15;96.12
48796;BME280;34607;48.520;-1.330;2023-03-23T12:54:28;99028.13;;;15.34;96.11
48796;BME280;34607;48.520;-1.330;2023-03-23T12:57:04;99021.13;;;15.36;95.17
48796;BME280;34607;48.520;-1.330;2023-03-23T12:59:37;99014.91;;;15.40;95.91
48796;BME280;34607;48.520;-1.330;2023-03-23T13:02:15;99008.84;;;15.40;94.86
48796;BME280;34607;48.520;-1.330;2023-03-23T13:04:45;98991.44;;;15.40;95.27
48796;BME280;34607;48.520;-1.330;2023-03-23T13:07:29;98989.34;;;15.54;93.94
48796;BME280;34607;48.520;-1.330;2023-03-23T13:10:03;98983.84;;;15.31;93.14
48796;BME280;34607;48.520;-1.330;2023-03-23T13:12:33;98998.81;;;15.24;93.50
48796;BME280;34607;48.520;-1.330;2023-03-23T13:15:15;98991.84;;;15.23;93.68
48796;BME280;34607;48.520;-1.330;2023-03-23T13:17:48;98991.69;;;15.31;92.25
48796;BME280;34607;48.520;-1.330;2023-03-23T13:20:35;98983.97;;;15.26;91.48
48796;BME280;34607;48.520;-1.330;2023-03-23T13:23:08;98965.50;;;15.35;92.60
48796;BME280;34607;48.520;-1.330;2023-03-23T13:25:51;98987.06;;;15.42;91.87
48796;BME280;34607;48.520;-1.330;2023-03-23T13:28:22;98984.28;;;15.48;92.34
48796;BME280;34607;48.520;-1.330;2023-03-23T13:30:59;98957.34;;;15.48;91.28
48796;BME280;34607;48.520;-1.330;2023-03-23T13:33:30;98977.97;;;15.57;90.60
48796;BME280;34607;48.520;-1.330;2023-03-23T13:36:04;98968.53;;;15.53;90.72
48796;BME280;34607;48.520;-1.330;2023-03-23T13:38:32;98974.53;;;15.55;90.67
48796;BME280;34607;48.520;-1.330;2023-03-23T13:41:07;98969.53;;;15.47;89.77
48796;BME280;34607;48.520;-1.330;2023-03-23T13:43:37;98958.22;;;15.47;88.87
48796;BME280;34607;48.520;-1.330;2023-03-23T13:46:11;98949.88;;;15.67;88.78
48796;BME280;34607;48.520;-1.330;2023-03-23T13:48:42;98945.66;;;15.63;88.56
48796;BME280;34607;48.520;-1.330;2023-03-23T13:51:25;98954.03;;;15.41;87.49
48796;BME280;34607;48.520;-1.330;2023-03-23T13:54:03;98940.00;;;15.11;88.67
48796;BME280;34607;48.520;-1.330;2023-03-23T13:56:36;98932.09;;;15.15;89.63
48796;BME280;34607;48.520;-1.330;2023-03-23T13:59:13;98916.13;;;15.28;89.44
48796;BME280;34607;48.520;-1.330;2023-03-23T14:01:41;98919.28;;;15.41;89.68
48796;BME280;34607;48.520;-1.330;2023-03-23T14:04:13;98914.63;;;15.52;88.13
48796;BME280;34607;48.520;-1.330;2023-03-23T14:06:41;98906.25;;;15.72;87.83
48796;BME280;34607;48.520;-1.330;2023-03-23T14:09:15;98916.34;;;15.53;86.18
48796;BME280;34607;48.520;-1.330;2023-03-23T14:11:49;98906.75;;;15.53;87.50
48796;BME280;34607;48.520;-1.330;2023-03-23T14:14:23;98898.56;;;15.34;86.70
48796;BME280;34607;48.520;-1.330;2023-03-23T14:16:51;98903.66;;;15.06;87.38
48796;BME280;34607;48.520;-1.330;2023-03-23T14:19:23;98900.09;;;15.09;88.38
48796;BME280;34607;48.520;-1.330;2023-03-23T14:21:53;98917.63;;;15.02;86.41
48796;BME280;34607;48.520;-1.330;2023-03-23T14:24:22;98918.75;;;14.92;84.55
48796;BME280;34607;48.520;-1.330;2023-03-23T14:26:51;98909.13;;;14.95;83.17
48796;BME280;34607;48.520;-1.330;2023-03-23T14:29:21;98922.97;;;14.97;82.57
48796;BME280;34607;48.520;-1.330;2023-03-23T14:31:54;98910.97;;;14.90;81.68
48796;BME280;34607;48.520;-1.330;2023-03-23T14:34:25;98900.13;;;14.73;81.03
48796;BME280;34607;48.520;-1.330;2023-03-23T14:36:53;98893.03;;;14.78;81.59
48796;BME280;34607;48.520;-1.330;2023-03-23T14:39:24;98898.22;;;14.79;80.07
48796;BME280;34607;48.520;-1.330;2023-03-23T14:41:53;98870.69;;;14.69;79.87
48796;BME280;34607;48.520;-1.330;2023-03-23T14:44:25;98886.78;;;14.85;80.02
48796;BME280;34607;48.520;-1.330;2023-03-23T14:46:53;98887.38;;;14.96;80.08
48796;BME280;34607;48.520;-1.330;2023-03-23T14:49:29;98867.97;;;14.74;79.21
48796;BME280;34607;48.520;-1.330;2023-03-23T14:52:03;98854.25;;;14.66;78.04
48796;BME280;34607;48.520;-1.330;2023-03-23T14:54:31;98872.44;;;14.69;78.08
48796;BME280;34607;48.520;-1.330;2023-03-23T14:57:05;98865.53;;;14.66;77.53
48796;BME280;34607;48.520;-1.330;2023-03-23T14:59:41;98819.94;;;14.48;77.79
48796;BME280;34607;48.520;-1.330;2023-03-23T15:02:12;98847.38;;;14.63;78.06
48796;BME280;34607;48.520;-1.330;2023-03-23T15:04:41;98858.25;;;14.43;76.70
48796;BME280;34607;48.520;-1.330;2023-03-23T15:07:10;98862.81;;;14.33;78.05
48796;BME280;34607;48.520;-1.330;2023-03-23T15:09:40;98845.56;;;14.29;78.62
48796;BME280;34607;48.520;-1.330;2023-03-23T15:12:20;98839.63;;;14.22;78.25
48796;BME280;34607;48.520;-1.330;2023-03-23T15:14:53;98837.84;;;14.24;79.76
48796;BME280;34607;48.520;-1.330;2023-03-23T15:17:23;98845.59;;;14.28;80.82
48796;BME280;34607;48.520;-1.330;2023-03-23T15:19:51;98838.84;;;14.19;82.18
48796;BME280;34607;48.520;-1.330;2023-03-23T15:22:23;98829.41;;;14.13;83.03
48796;BME280;34607;48.520;-1.330;2023-03-23T15:24:52;98845.09;;;14.10;84.23
48796;BME280;34607;48.520;-1.330;2023-03-23T15:27:25;98827.94;;;14.01;85.59
48796;BME280;34607;48.520;-1.330;2023-03-23T15:29:56;98831.44;;;14.00;86.72
48796;BME280;34607;48.520;-1.330;2023-03-23T15:32:26;98797.94;;;13.85;88.02
48796;BME280;34607;48.520;-1.330;2023-03-23T15:34:54;98804.81;;;13.88;89.40
48796;BME280;34607;48.520;-1.330;2023-03-23T15:37:26;98801.91;;;13.62;92.36
48796;BME280;34607;48.520;-1.330;2023-03-23T15:39:55;98805.16;;;13.72;93.09
48796;BME280;34607;48.520;-1.330;2023-03-23T15:42:25;98810.38;;;13.71;92.90
48796;BME280;34607;48.520;-1.330;2023-03-23T15:45:23;98798.50;;;13.59;94.63
48796;BME280;34607;48.520;-1.330;2023-03-23T15:47:51;98802.16;;;13.48;95.55
48796;BME280;34607;48.520;-1.330;2023-03-23T15:50:20;98790.16;;;13.43;96.39
48796;BME280;34607;48.520;-1.330;2023-03-23T15:52:47;98797.34;;;13.32;98.00
48796;BME280;34607;48.520;-1.330;2023-03-23T15:55:22;98778.50;;;13.17;99.22
48796;BME280;34607;48.520;-1.330;2023-03-23T15:57:50;98777.59;;;13.20;100.00
48796;BME280;34607;48.520;-1.330;2023-03-23T16:00:21;98783.91;;;13.08;100.00
48796;BME280;34607;48.520;-1.330;2023-03-23T16:02:51;98790.91;;;13.03;100.00
48796;BME280;34607;48.520;-1.330;2023-03-23T16:05:19;98796.16;;;13.00;100.00
48796;BME280;34607;48.520;-1.330;2023-03-23T16:07:46;98805.88;;;12.88;100.00
48796;BME280;34607;48.520;-1.330;2023-03-23T16:10:15;98785.28;;;12.79;100.00
48796;BME280;34607;48.520;-1.330;2023-03-23T16:12:43;98783.63;;;12.75;100.00
48796;BME280;34607;48.520;-1.330;2023-03-23T16:15:11;98771.44;;;12.79;100.00
48796;BME280;34607;48.520;-1.330;2023-03-23T16:17:39;98786.88;;;12.86;100.00
48796;BME280;34607;48.520;-1.330;2023-03-23T16:20:14;98760.25;;;12.77;100.00
48796;BME280;34607;48.520;-1.330;2023-03-23T16:22:41;98754.97;;;12.78;100.00
48796;BME280;34607;48.520;-1.330;2023-03-23T16:25:08;98770.66;;;12.75;100.00
48796;BME280;34607;48.520;-1.330;2023-03-23T16:27:36;98737.94;;;12.65;100.00
48796;BME280;34607;48.520;-1.330;2023-03-23T16:30:13;98747.31;;;12.73;100.00
48796;BME280;34607;48.520;-1.330;2023-03-23T16:32:42;98751.69;;;12.70;100.00
48796;BME280;34607;48.520;-1.330;2023-03-23T16:35:09;98721.50;;;12.63;100.00
48796;BME280;34607;48.520;-1.330;2023-03-23T16:37:37;98749.19;;;12.64;100.00
48796;BME280;34607;48.520;-1.330;2023-03-23T16:40:05;98737.16;;;12.60;100.00
48796;BME280;34607;48.520;-1.330;2023-03-23T16:42:33;98736.38;;;12.56;100.00
48796;BME280;34607;48.520;-1.330;2023-03-23T16:45:00;98736.44;;;12.51;100.00
48796;BME280;34607;48.520;-1.330;2023-03-23T16:47:27;98721.72;;;12.50;100.00
48796;BME280;34607;48.520;-1.330;2023-03-23T16:49:55;98727.69;;;12.55;100.00
48796;BME280;34607;48.520;-1.330;2023-03-23T16:52:22;98698.22;;;12.60;100.00
48796;BME280;34607;48.520;-1.330;2023-03-23T16:54:49;98696.56;;;12.54;100.00
48796;BME280;34607;48.520;-1.330;2023-03-23T16:57:17;98727.91;;;12.43;100.00
48796;BME280;34607;48.520;-1.330;2023-03-23T16:59:44;98739.97;;;12.47;100.00
48796;BME280;34607;48.520;-1.330;2023-03-23T17:02:11;98739.03;;;12.51;100.00
48796;BME280;34607;48.520;-1.330;2023-03-23T17:04:42;98700.16;;;12.47;100.00
48796;BME280;34607;48.520;-1.330;2023-03-23T17:07:12;98715.81;;;12.42;100.00
48796;BME280;34607;48.520;-1.330;2023-03-23T17:09:39;98708.88;;;12.44;100.00
48796;BME280;34607;48.520;-1.330;2023-03-23T17:12:06;98688.25;;;12.35;100.00
48796;BME280;34607;48.520;-1.330;2023-03-23T17:14:33;98696.81;;;12.40;100.00
48796;BME280;34607;48.520;-1.330;2023-03-23T17:17:00;98689.97;;;12.38;100.00
48796;BME280;34607;48.520;-1.330;2023-03-23T17:19:27;98709.91;;;12.35;100.00
48796;BME280;34607;48.520;-1.330;2023-03-23T17:21:55;98680.69;;;12.23;100.00
48796;BME280;34607;48.520;-1.330;2023-03-23T17:24:23;98678.97;;;12.22;100.00
48796;BME280;34607;48.520;-1.330;2023-03-23T17:26:51;98696.03;;;12.36;100.00
48796;BME280;34607;48.520;-1.330;2023-03-23T17:29:19;98667.63;;;12.29;100.00
48796;BME280;34607;48.520;-1.330;2023-03-23T17:31:47;98649.78;;;12.10;100.00
48796;BME280;34607;48.520;-1.330;2023-03-23T17:34:14;98680.53;;;12.32;100.00
48796;BME280;34607;48.520;-1.330;2023-03-23T17:36:41;98682.31;;;12.28;100.00
48796;BME280;34607;48.520;-1.330;2023-03-23T17:39:09;98679.66;;;12.33;100.00
48796;BME280;34607;48.520;-1.330;2023-03-23T17:41:37;98685.66;;;12.35;100.00
48796;BME280;34607;48.520;-1.330;2023-03-23T17:44:04;98682.19;;;12.36;100.00
48796;BME280;34607;48.520;-1.330;2023-03-23T17:46:32;98663.31;;;12.26;100.00
48796;BME280;34607;48.520;-1.330;2023-03-23T17:48:59;98679.69;;;12.31;100.00
48796;BME280;34607;48.520;-1.330;2023-03-23T17:51:26;98662.34;;;12.32;100.00
48796;BME280;34607;48.520;-1.330;2023-03-23T17:53:53;98676.22;;;12.31;100.00
48796;BME280;34607;48.520;-1.330;2023-03-23T17:56:20;98665.88;;;12.29;100.00
48796;BME280;34607;48.520;-1.330;2023-03-23T17:58:49;98658.94;;;12.30;100.00
48796;BME280;34607;48.520;-1.330;2023-03-23T18:01:16;98658.16;;;12.25;100.00
48796;BME280;34607;48.520;-1.330;2023-03-23T18:03:43;98655.72;;;12.17;100.00
48796;BME280;34607;48.520;-1.330;2023-03-23T18:06:11;98644.56;;;12.12;100.00
48796;BME280;34607;48.520;-1.330;2023-03-23T18:08:38;98644.38;;;12.21;100.00
48796;BME280;34607;48.520;-1.330;2023-03-23T18:11:06;98623.91;;;12.06;100.00
48796;BME280;34607;48.520;-1.330;2023-03-23T18:13:35;98635.78;;;12.19;100.00
48796;BME280;34607;48.520;-1.330;2023-03-23T18:16:05;98633.97;;;12.23;100.00
48796;BME280;34607;48.520;-1.330;2023-03-23T18:18:33;98628.16;;;12.10;100.00
48796;BME280;34607;48.520;-1.330;2023-03-23T18:21:02;98647.97;;;12.15;100.00
48796;BME280;34607;48.520;-1.330;2023-03-23T18:23:30;98642.72;;;12.18;100.00
48796;BME280;34607;48.520;-1.330;2023-03-23T18:26:00;98637.56;;;12.15;100.00
48796;BME280;34607;48.520;-1.330;2023-03-23T18:28:28;98634.06;;;12.18;100.00
48796;BME280;34607;48.520;-1.330;2023-03-23T18:31:01;98630.59;;;12.19;100.00
48796;BME280;34607;48.520;-1.330;2023-03-23T18:33:29;98631.44;;;12.20;100.00
48796;BME280;34607;48.520;-1.330;2023-03-23T18:35:57;98633.19;;;12.19;100.00
48796;BME280;34607;48.520;-1.330;2023-03-23T18:38:25;98622.78;;;12.21;100.00
48796;BME280;34607;48.520;-1.330;2023-03-23T18:40:53;98620.97;;;12.24;100.00
48796;BME280;34607;48.520;-1.330;2023-03-23T18:43:20;98599.47;;;12.17;100.00
48796;BME280;34607;48.520;-1.330;2023-03-23T18:45:48;98613.22;;;12.23;100.00
48796;BME280;34607;48.520;-1.330;2023-03-23T18:48:15;98610.63;;;12.23;100.00
48796;BME280;34607;48.520;-1.330;2023-03-23T18:50:46;98607.94;;;12.29;100.00
48796;BME280;34607;48.520;-1.330;2023-03-23T18:53:14;98611.44;;;12.25;100.00
48796;BME280;34607;48.520;-1.330;2023-03-23T18:55:41;98617.59;;;12.21;100.00
48796;BME280;34607;48.520;-1.330;2023-03-23T18:58:09;98566.84;;;12.04;100.00
48796;BME280;34607;48.520;-1.330;2023-03-23T19:00:36;98607.28;;;12.16;100.00
48796;BME280;34607;48.520;-1.330;2023-03-23T19:03:04;98610.69;;;12.20;100.00
48796;BME280;34607;48.520;-1.330;2023-03-23T19:05:32;98619.38;;;12.17;100.00
48796;BME280;34607;48.520;-1.330;2023-03-23T19:08:01;98606.38;;;12.20;100.00
48796;BME280;34607;48.520;-1.330;2023-03-23T19:10:31;98601.28;;;12.14;100.00
48796;BME280;34607;48.520;-1.330;2023-03-23T19:13:01;98611.59;;;12.18;100.00
48796;BME280;34607;48.520;-1.330;2023-03-23T19:15:28;98586.44;;;12.21;100.00
48796;BME280;34607;48.520;-1.330;2023-03-23T19:17:55;98611.50;;;12.22;100.00
48796;BME280;34607;48.520;-1.330;2023-03-23T19:20:23;98605.50;;;12.18;100.00
48796;BME280;34607;48.520;-1.330;2023-03-23T19:22:51;98588.16;;;12.22;100.00
48796;BME280;34607;48.520;-1.330;2023-03-23T19:25:20;98597.72;;;12.18;100.00
48796;BME280;34607;48.520;-1.330;2023-03-23T19:27:47;98592.56;;;12.16;100.00
48796;BME280;34607;48.520;-1.330;2023-03-23T19:30:15;98589.94;;;12.18;100.00
48796;BME280;34607;48.520;-1.330;2023-03-23T19:32:42;98610.66;;;12.21;100.00
48796;BME280;34607;48.520;-1.330;2023-03-23T19:35:09;98605.72;;;12.07;100.00
48796;BME280;34607;48.520;-1.330;2023-03-23T19:37:36;98596.16;;;12.09;100.00
48796;BME280;34607;48.520;-1.330;2023-03-23T19:40:04;98589.28;;;12.08;100.00
48796;BME280;34607;48.520;-1.330;2023-03-23T19:42:33;98590.91;;;12.14;100.00
48796;BME280;34607;48.520;-1.330;2023-03-23T19:45:00;98581.50;;;12.08;100.00
48796;BME280;34607;48.520;-1.330;2023-03-23T19:47:28;98582.41;;;12.04;100.00
48796;BME280;34607;48.520;-1.330;2023-03-23T19:49:55;98590.91;;;12.14;100.00
48796;BME280;34607;48.520;-1.330;2023-03-23T19:52:24;98602.94;;;12.16;100.00
48796;BME280;34607;48.520;-1.330;2023-03-23T19:54:52;98595.28;;;12.10;100.00
48796;BME280;34607;48.520;-1.330;2023-03-23T19:57:19;98596.97;;;12.11;100.00
48796;BME280;34607;48.520;-1.330;2023-03-23T19:59:48;98603.06;;;12.12;100.00
48796;BME280;34607;48.520;-1.330;2023-03-23T20:02:15;98594.44;;;12.10;100.00
48796;BME280;34607;48.520;-1.330;2023-03-23T20:04:42;98608.31;;;12.07;100.00
48796;BME280;34607;48.520;-1.330;2023-03-23T20:07:09;98611.69;;;12.11;100.00
48796;BME280;34607;48.520;-1.330;2023-03-23T20:09:37;98607.31;;;12.14;100.00
48796;BME280;34607;48.520;-1.330;2023-03-23T20:12:04;98619.50;;;12.09;100.00
48796;BME280;34607;48.520;-1.330;2023-03-23T20:14:32;98646.22;;;12.16;100.00
48796;BME280;34607;48.520;-1.330;2023-03-23T20:17:01;98606.66;;;12.05;100.00
48796;BME280;34607;48.520;-1.330;2023-03-23T20:19:28;98627.28;;;12.11;100.00
48796;BME280;34607;48.520;-1.330;2023-03-23T20:21:55;98639.34;;;12.13;100.00
48796;BME280;34607;48.520;-1.330;2023-03-23T20:24:22;98641.88;;;12.16;100.00
48796;BME280;34607;48.520;-1.330;2023-03-23T20:26:49;98641.88;;;12.16;100.00
48796;BME280;34607;48.520;-1.330;2023-03-23T20:29:16;98650.59;;;12.12;100.00
48796;BME280;34607;48.520;-1.330;2023-03-23T20:31:43;98651.59;;;12.05;100.00
48796;BME280;34607;48.520;-1.330;2023-03-23T20:34:14;98650.66;;;12.09;100.00
48796;BME280;34607;48.520;-1.330;2023-03-23T20:36:43;98650.59;;;12.12;100.00
48796;BME280;34607;48.520;-1.330;2023-03-23T20:39:14;98685.16;;;12.14;100.00
48796;BME280;34607;48.520;-1.330;2023-03-23T20:41:43;98670.50;;;12.13;100.00
48796;BME280;34607;48.520;-1.330;2023-03-23T20:44:12;98673.06;;;12.15;100.00
48796;BME280;34607;48.520;-1.330;2023-03-23T20:46:40;98673.00;;;12.16;100.00
48796;BME280;34607;48.520;-1.330;2023-03-23T20:49:07;98672.94;;;12.20;100.00
48796;BME280;34607;48.520;-1.330;2023-03-23T20:51:36;98668.75;;;12.14;100.00